Main page
METAR-TAF:

METAR-TAF

Airports :

Sleipner, Norway

Oil platform

latitude: 58-22-00N, longitude: 001-54-25E, elevation: 50 m

Current weather observation

The report was made 17 minutes ago, at 19:50 UTC
Wind 20 kt from the Southwest
Temperature 9°C
Humidity 76%
Pressure 1023 hPa
Visibility 10 km or more

METAR: ENSL 181950Z AUTO 23020KT 9999NDV OVC022/// 09/05 Q1023 W07/S4

Time: 21:07 (20:07 UTC)

Forecast

The report was made 6 hours and 7 minutes ago, at 14:00 UTC
Forecast valid from 18 at 15 UTC to 18 at 18 UTC
Wind 18 kt from the West/Southwest
Visibility 10 km or more
Scattered clouds at a height of 3000 ft
Broken clouds at a height of 5000 ft

TAF: ENSL 181400Z 1815/1818 24018KT 9999 SCT030 BKN050

Weather observations and forecasts of more than 4000 airports (METAR and TAF reports).

The available stations are represented by yellow and red dots on the map.

Hover mouse over dot to see the name of the station.

Then click to see weather observations and forecasts.

To change the map : click on the green buttons with a black cross to zoom in, on the green button with a dash to zoom out, or on the green arrows for adjacent maps.


METAR-TAF: